sensor_id;sensor_type;location;lat;lon;timestamp;temperature;humidity
44565;DHT22;30275;51.822;-0.326;2022-08-19T00:11:28;25.70;94.00
44565;DHT22;30275;51.822;-0.326;2022-08-19T00:13:58;25.80;94.40
44565;DHT22;30275;51.822;-0.326;2022-08-19T00:16:25;25.70;95.10
44565;DHT22;30275;51.822;-0.326;2022-08-19T00:18:51;25.60;95.30
44565;DHT22;30275;51.822;-0.326;2022-08-19T00:21:16;25.60;95.40
44565;DHT22;30275;51.822;-0.326;2022-08-19T00:23:43;25.50;95.40
44565;DHT22;30275;51.822;-0.326;2022-08-19T00:26:10;25.50;95.60
44565;DHT22;30275;51.822;-0.326;2022-08-19T00:28:36;25.50;95.60
44565;DHT22;30275;51.822;-0.326;2022-08-19T00:31:06;25.50;95.70
44565;DHT22;30275;51.822;-0.326;2022-08-19T00:33:33;25.50;95.70
44565;DHT22;30275;51.822;-0.326;2022-08-19T00:36:05;25.50;95.80
44565;DHT22;30275;51.822;-0.326;2022-08-19T00:38:36;25.50;95.90
44565;DHT22;30275;51.822;-0.326;2022-08-19T00:41:02;25.50;95.90
44565;DHT22;30275;51.822;-0.326;2022-08-19T00:43:28;25.50;96.00
44565;DHT22;30275;51.822;-0.326;2022-08-19T00:45:57;25.40;96.00
44565;DHT22;30275;51.822;-0.326;2022-08-19T00:48:22;25.50;96.20
44565;DHT22;30275;51.822;-0.326;2022-08-19T00:50:50;25.40;96.20
44565;DHT22;30275;51.822;-0.326;2022-08-19T00:53:20;25.40;96.50
44565;DHT22;30275;51.822;-0.326;2022-08-19T00:55:48;25.40;96.70
44565;DHT22;30275;51.822;-0.326;2022-08-19T00:58:20;25.40;97.00
44565;DHT22;30275;51.822;-0.326;2022-08-19T01:00:48;25.80;99.90
44565;DHT22;30275;51.822;-0.326;2022-08-19T01:03:17;25.40;99.90
44565;DHT22;30275;51.822;-0.326;2022-08-19T01:05:44;25.10;99.90
44565;DHT22;30275;51.822;-0.326;2022-08-19T01:08:11;25.40;99.90
44565;DHT22;30275;51.822;-0.326;2022-08-19T01:10:45;25.40;99.90
44565;DHT22;30275;51.822;-0.326;2022-08-19T01:13:14;25.40;99.90
44565;DHT22;30275;51.822;-0.326;2022-08-19T01:15:43;25.40;99.90
44565;DHT22;30275;51.822;-0.326;2022-08-19T01:18:12;25.40;99.90
44565;DHT22;30275;51.822;-0.326;2022-08-19T01:20:39;25.40;99.90
44565;DHT22;30275;51.822;-0.326;2022-08-19T01:23:05;25.40;99.90
44565;DHT22;30275;51.822;-0.326;2022-08-19T01:25:39;25.40;99.90
44565;DHT22;30275;51.822;-0.326;2022-08-19T01:28:07;25.30;99.90
44565;DHT22;30275;51.822;-0.326;2022-08-19T01:30:34;25.40;99.90
44565;DHT22;30275;51.822;-0.326;2022-08-19T01:33:01;25.40;99.90
44565;DHT22;30275;51.822;-0.326;2022-08-19T01:35:29;25.30;99.90
44565;DHT22;30275;51.822;-0.326;2022-08-19T01:38:01;25.30;99.90
44565;DHT22;30275;51.822;-0.326;2022-08-19T01:40:30;25.30;99.90
44565;DHT22;30275;51.822;-0.326;2022-08-19T01:42:57;25.30;99.90
44565;DHT22;30275;51.822;-0.326;2022-08-19T01:45:25;25.30;99.90
44565;DHT22;30275;51.822;-0.326;2022-08-19T01:47:51;25.30;99.90
44565;DHT22;30275;51.822;-0.326;2022-08-19T01:50:17;25.30;99.90
44565;DHT22;30275;51.822;-0.326;2022-08-19T01:52:44;25.30;99.90
44565;DHT22;30275;51.822;-0.326;2022-08-19T01:55:17;25.30;99.90
44565;DHT22;30275;51.822;-0.326;2022-08-19T01:57:46;25.30;99.90
44565;DHT22;30275;51.822;-0.326;2022-08-19T02:00:16;25.30;99.90
44565;DHT22;30275;51.822;-0.326;2022-08-19T02:02:43;25.30;99.90
44565;DHT22;30275;51.822;-0.326;2022-08-19T02:05:09;25.20;99.90
44565;DHT22;30275;51.822;-0.326;2022-08-19T02:07:36;25.30;99.90
44565;DHT22;30275;51.822;-0.326;2022-08-19T02:10:09;25.30;99.90
44565;DHT22;30275;51.822;-0.326;2022-08-19T02:12:35;25.20;99.90
44565;DHT22;30275;51.822;-0.326;2022-08-19T02:15:02;25.20;99.90
44565;DHT22;30275;51.822;-0.326;2022-08-19T02:17:28;25.20;99.90
44565;DHT22;30275;51.822;-0.326;2022-08-19T02:19:55;25.20;99.90
44565;DHT22;30275;51.822;-0.326;2022-08-19T02:22:21;25.00;99.90
44565;DHT22;30275;51.822;-0.326;2022-08-19T02:24:46;25.20;99.90
44565;DHT22;30275;51.822;-0.326;2022-08-19T02:27:13;24.90;99.90
44565;DHT22;30275;51.822;-0.326;2022-08-19T02:29:39;25.20;99.90
44565;DHT22;30275;51.822;-0.326;2022-08-19T02:32:07;25.10;99.90
44565;DHT22;30275;51.822;-0.326;2022-08-19T02:34:34;25.10;99.90
44565;DHT22;30275;51.822;-0.326;2022-08-19T02:37:00;25.10;99.90
44565;DHT22;30275;51.822;-0.326;2022-08-19T02:39:26;25.10;99.90
44565;DHT22;30275;51.822;-0.326;2022-08-19T02:41:52;25.10;99.90
44565;DHT22;30275;51.822;-0.326;2022-08-19T02:44:18;25.10;99.90
44565;DHT22;30275;51.822;-0.326;2022-08-19T02:46:46;25.00;99.90
44565;DHT22;30275;51.822;-0.326;2022-08-19T02:49:12;25.10;99.90
44565;DHT22;30275;51.822;-0.326;2022-08-19T02:51:43;25.10;99.90
44565;DHT22;30275;51.822;-0.326;2022-08-19T02:54:10;25.10;99.90
44565;DHT22;30275;51.822;-0.326;2022-08-19T02:56:37;25.00;99.90
44565;DHT22;30275;51.822;-0.326;2022-08-19T02:59:04;24.90;95.30
44565;DHT22;30275;51.822;-0.326;2022-08-19T03:01:37;25.10;95.50
44565;DHT22;30275;51.822;-0.326;2022-08-19T03:04:05;25.10;95.60
44565;DHT22;30275;51.822;-0.326;2022-08-19T03:06:31;25.10;95.90
44565;DHT22;30275;51.822;-0.326;2022-08-19T03:08:57;25.10;96.00
44565;DHT22;30275;51.822;-0.326;2022-08-19T03:11:31;25.00;96.00
44565;DHT22;30275;51.822;-0.326;2022-08-19T03:13:58;25.00;96.00
44565;DHT22;30275;51.822;-0.326;2022-08-19T03:16:28;25.00;96.10
44565;DHT22;30275;51.822;-0.326;2022-08-19T03:18:56;25.00;96.10
44565;DHT22;30275;51.822;-0.326;2022-08-19T03:21:25;25.00;96.20
44565;DHT22;30275;51.822;-0.326;2022-08-19T03:23:54;25.00;96.20
44565;DHT22;30275;51.822;-0.326;2022-08-19T03:26:20;25.00;96.30
44565;DHT22;30275;51.822;-0.326;2022-08-19T03:28:46;25.00;96.30
44565;DHT22;30275;51.822;-0.326;2022-08-19T03:31:17;25.00;96.40
44565;DHT22;30275;51.822;-0.326;2022-08-19T03:33:43;25.00;96.40
44565;DHT22;30275;51.822;-0.326;2022-08-19T03:36:21;25.00;96.50
44565;DHT22;30275;51.822;-0.326;2022-08-19T03:38:58;25.00;97.00
44565;DHT22;30275;51.822;-0.326;2022-08-19T03:41:29;25.00;97.00
44565;DHT22;30275;51.822;-0.326;2022-08-19T03:43:56;25.00;97.00
44565;DHT22;30275;51.822;-0.326;2022-08-19T03:46:28;25.00;97.00
44565;DHT22;30275;51.822;-0.326;2022-08-19T03:48:56;24.90;97.00
44565;DHT22;30275;51.822;-0.326;2022-08-19T03:51:32;25.00;97.10
44565;DHT22;30275;51.822;-0.326;2022-08-19T03:54:00;25.00;97.20
44565;DHT22;30275;51.822;-0.326;2022-08-19T03:56:27;24.90;97.20
44565;DHT22;30275;51.822;-0.326;2022-08-19T03:58:54;24.90;97.20
44565;DHT22;30275;51.822;-0.326;2022-08-19T04:01:23;24.90;97.20
44565;DHT22;30275;51.822;-0.326;2022-08-19T04:03:49;24.90;97.20
44565;DHT22;30275;51.822;-0.326;2022-08-19T04:06:24;24.90;97.30
44565;DHT22;30275;51.822;-0.326;2022-08-19T04:08:52;24.90;97.70
44565;DHT22;30275;51.822;-0.326;2022-08-19T04:11:23;24.90;97.40
44565;DHT22;30275;51.822;-0.326;2022-08-19T04:13:51;24.90;97.50
44565;DHT22;30275;51.822;-0.326;2022-08-19T04:16:20;24.90;97.60
44565;DHT22;30275;51.822;-0.326;2022-08-19T04:18:47;24.90;97.60
44565;DHT22;30275;51.822;-0.326;2022-08-19T04:21:21;24.90;97.90
44565;DHT22;30275;51.822;-0.326;2022-08-19T04:23:48;24.90;97.70
44565;DHT22;30275;51.822;-0.326;2022-08-19T04:26:20;24.90;97.80
44565;DHT22;30275;51.822;-0.326;2022-08-19T04:28:46;24.90;97.80
44565;DHT22;30275;51.822;-0.326;2022-08-19T04:31:19;24.90;97.90
44565;DHT22;30275;51.822;-0.326;2022-08-19T04:33:45;24.90;98.00
44565;DHT22;30275;51.822;-0.326;2022-08-19T04:36:24;24.90;98.10
44565;DHT22;30275;51.822;-0.326;2022-08-19T04:38:52;24.90;98.20
44565;DHT22;30275;51.822;-0.326;2022-08-19T04:41:18;24.90;98.30
44565;DHT22;30275;51.822;-0.326;2022-08-19T04:44:02;24.90;98.20
44565;DHT22;30275;51.822;-0.326;2022-08-19T04:46:28;24.80;98.30
44565;DHT22;30275;51.822;-0.326;2022-08-19T04:48:58;24.80;98.30
44565;DHT22;30275;51.822;-0.326;2022-08-19T04:51:24;24.80;98.40
44565;DHT22;30275;51.822;-0.326;2022-08-19T04:53:51;24.80;98.60
44565;DHT22;30275;51.822;-0.326;2022-08-19T04:56:18;24.90;98.80
44565;DHT22;30275;51.822;-0.326;2022-08-19T04:58:48;24.90;99.10
44565;DHT22;30275;51.822;-0.326;2022-08-19T05:01:25;24.80;99.60
44565;DHT22;30275;51.822;-0.326;2022-08-19T05:03:51;24.80;99.90
44565;DHT22;30275;51.822;-0.326;2022-08-19T05:06:19;24.90;99.90
44565;DHT22;30275;51.822;-0.326;2022-08-19T05:08:46;24.80;99.90
44565;DHT22;30275;51.822;-0.326;2022-08-19T05:11:38;24.80;99.90
44565;DHT22;30275;51.822;-0.326;2022-08-19T05:14:08;24.80;99.90
44565;DHT22;30275;51.822;-0.326;2022-08-19T05:16:37;24.80;99.90
44565;DHT22;30275;51.822;-0.326;2022-08-19T05:19:02;24.80;99.90
44565;DHT22;30275;51.822;-0.326;2022-08-19T05:21:47;24.80;99.90
44565;DHT22;30275;51.822;-0.326;2022-08-19T05:24:31;24.80;99.90
44565;DHT22;30275;51.822;-0.326;2022-08-19T05:27:00;24.80;99.90
44565;DHT22;30275;51.822;-0.326;2022-08-19T05:29:29;24.80;99.90
44565;DHT22;30275;51.822;-0.326;2022-08-19T05:31:57;24.80;99.90
44565;DHT22;30275;51.822;-0.326;2022-08-19T05:34:24;24.80;99.90
44565;DHT22;30275;51.822;-0.326;2022-08-19T05:36:56;24.80;99.90
44565;DHT22;30275;51.822;-0.326;2022-08-19T05:39:24;24.80;99.90
44565;DHT22;30275;51.822;-0.326;2022-08-19T05:41:53;24.80;99.90
44565;DHT22;30275;51.822;-0.326;2022-08-19T05:44:20;24.90;99.90
44565;DHT22;30275;51.822;-0.326;2022-08-19T05:46:47;24.80;99.90
44565;DHT22;30275;51.822;-0.326;2022-08-19T05:49:15;24.90;99.90
44565;DHT22;30275;51.822;-0.326;2022-08-19T05:51:41;24.80;99.90
44565;DHT22;30275;51.822;-0.326;2022-08-19T05:54:09;24.80;99.90
44565;DHT22;30275;51.822;-0.326;2022-08-19T05:56:37;24.90;99.90
44565;DHT22;30275;51.822;-0.326;2022-08-19T05:59:04;24.90;99.90
44565;DHT22;30275;51.822;-0.326;2022-08-19T06:01:34;24.90;99.90
44565;DHT22;30275;51.822;-0.326;2022-08-19T06:04:00;24.90;99.90
44565;DHT22;30275;51.822;-0.326;2022-08-19T06:06:25;24.90;99.90
44565;DHT22;30275;51.822;-0.326;2022-08-19T06:08:51;24.90;99.90
44565;DHT22;30275;51.822;-0.326;2022-08-19T06:11:24;24.90;99.90
44565;DHT22;30275;51.822;-0.326;2022-08-19T06:13:52;24.90;99.90
44565;DHT22;30275;51.822;-0.326;2022-08-19T06:16:20;24.90;99.90
44565;DHT22;30275;51.822;-0.326;2022-08-19T06:18:52;24.90;99.90
44565;DHT22;30275;51.822;-0.326;2022-08-19T06:21:23;24.90;99.90
44565;DHT22;30275;51.822;-0.326;2022-08-19T06:23:50;24.90;99.90
44565;DHT22;30275;51.822;-0.326;2022-08-19T06:26:17;24.90;99.90
44565;DHT22;30275;51.822;-0.326;2022-08-19T06:28:44;24.90;99.90
44565;DHT22;30275;51.822;-0.326;2022-08-19T06:31:14;24.90;99.90
44565;DHT22;30275;51.822;-0.326;2022-08-19T06:33:42;25.00;99.90
44565;DHT22;30275;51.822;-0.326;2022-08-19T06:36:19;24.90;99.90
44565;DHT22;30275;51.822;-0.326;2022-08-19T06:38:45;24.90;99.90
44565;DHT22;30275;51.822;-0.326;2022-08-19T06:41:11;24.90;99.90
44565;DHT22;30275;51.822;-0.326;2022-08-19T06:43:36;25.00;99.90
44565;DHT22;30275;51.822;-0.326;2022-08-19T06:46:03;24.90;99.90
44565;DHT22;30275;51.822;-0.326;2022-08-19T06:48:29;25.00;99.90
44565;DHT22;30275;51.822;-0.326;2022-08-19T06:50:55;24.90;99.90
44565;DHT22;30275;51.822;-0.326;2022-08-19T06:53:21;24.90;99.90
44565;DHT22;30275;51.822;-0.326;2022-08-19T06:55:47;24.90;99.90
44565;DHT22;30275;51.822;-0.326;2022-08-19T06:58:13;25.00;99.90
44565;DHT22;30275;51.822;-0.326;2022-08-19T07:00:39;25.00;99.90
44565;DHT22;30275;51.822;-0.326;2022-08-19T07:03:05;25.00;99.90
44565;DHT22;30275;51.822;-0.326;2022-08-19T07:05:31;25.00;99.90
44565;DHT22;30275;51.822;-0.326;2022-08-19T07:07:56;25.10;99.90
44565;DHT22;30275;51.822;-0.326;2022-08-19T07:17:43;25.10;99.90
44565;DHT22;30275;51.822;-0.326;2022-08-19T07:34:57;25.30;99.90
44565;DHT22;30275;51.822;-0.326;2022-08-19T07:37:25;25.50;99.90
44565;DHT22;30275;51.822;-0.326;2022-08-19T07:39:54;25.50;99.90
44565;DHT22;30275;51.822;-0.326;2022-08-19T07:42:20;25.60;99.90
44565;DHT22;30275;51.822;-0.326;2022-08-19T07:44:46;25.60;99.90
44565;DHT22;30275;51.822;-0.326;2022-08-19T07:47:12;25.70;99.90
44565;DHT22;30275;51.822;-0.326;2022-08-19T07:49:40;25.70;99.90
44565;DHT22;30275;51.822;-0.326;2022-08-19T07:52:09;25.80;99.90
44565;DHT22;30275;51.822;-0.326;2022-08-19T07:54:37;25.80;99.90
44565;DHT22;30275;51.822;-0.326;2022-08-19T07:57:04;25.80;99.90
44565;DHT22;30275;51.822;-0.326;2022-08-19T07:59:30;25.80;99.90
44565;DHT22;30275;51.822;-0.326;2022-08-19T08:01:56;25.80;99.90
44565;DHT22;30275;51.822;-0.326;2022-08-19T08:04:22;25.90;99.90
44565;DHT22;30275;51.822;-0.326;2022-08-19T08:07:07;25.90;99.90
44565;DHT22;30275;51.822;-0.326;2022-08-19T08:09:52;25.90;99.90
44565;DHT22;30275;51.822;-0.326;2022-08-19T08:12:39;25.90;99.90
44565;DHT22;30275;51.822;-0.326;2022-08-19T08:15:13;26.30;99.90
44565;DHT22;30275;51.822;-0.326;2022-08-19T08:17:43;25.90;99.90
44565;DHT22;30275;51.822;-0.326;2022-08-19T08:20:09;26.00;99.90
44565;DHT22;30275;51.822;-0.326;2022-08-19T08:22:35;26.00;99.90
44565;DHT22;30275;51.822;-0.326;2022-08-19T08:25:22;26.00;99.90
44565;DHT22;30275;51.822;-0.326;2022-08-19T08:27:48;26.00;99.90
44565;DHT22;30275;51.822;-0.326;2022-08-19T08:30:23;26.10;99.90
44565;DHT22;30275;51.822;-0.326;2022-08-19T08:32:50;26.00;99.90
44565;DHT22;30275;51.822;-0.326;2022-08-19T08:35:19;26.10;99.90
44565;DHT22;30275;51.822;-0.326;2022-08-19T08:37:46;26.10;99.90
44565;DHT22;30275;51.822;-0.326;2022-08-19T08:43:18;26.10;99.90
44565;DHT22;30275;51.822;-0.326;2022-08-19T08:45:59;26.10;99.90
44565;DHT22;30275;51.822;-0.326;2022-08-19T08:48:35;26.10;99.90
44565;DHT22;30275;51.822;-0.326;2022-08-19T08:51:05;26.10;99.90
44565;DHT22;30275;51.822;-0.326;2022-08-19T08:53:34;26.10;99.90
44565;DHT22;30275;51.822;-0.326;2022-08-19T08:56:03;26.10;99.90
44565;DHT22;30275;51.822;-0.326;2022-08-19T08:58:45;26.10;99.90
44565;DHT22;30275;51.822;-0.326;2022-08-19T09:01:12;25.90;99.90
44565;DHT22;30275;51.822;-0.326;2022-08-19T09:03:40;26.20;99.90
44565;DHT22;30275;51.822;-0.326;2022-08-19T09:21:24;26.80;99.90
44565;DHT22;30275;51.822;-0.326;2022-08-19T09:23:51;26.30;99.90
44565;DHT22;30275;51.822;-0.326;2022-08-19T12:34:27;26.70;94.80
44565;DHT22;30275;51.822;-0.326;2022-08-19T12:36:56;26.70;96.70
44565;DHT22;30275;51.822;-0.326;2022-08-19T12:39:22;26.70;97.00
44565;DHT22;30275;51.822;-0.326;2022-08-19T12:41:48;26.70;97.20
44565;DHT22;30275;51.822;-0.326;2022-08-19T12:44:14;26.70;97.40
44565;DHT22;30275;51.822;-0.326;2022-08-19T12:46:40;26.70;97.70
44565;DHT22;30275;51.822;-0.326;2022-08-19T12:49:06;26.60;97.80
44565;DHT22;30275;51.822;-0.326;2022-08-19T12:51:31;26.70;97.90
44565;DHT22;30275;51.822;-0.326;2022-08-19T12:53:57;26.70;98.10
44565;DHT22;30275;51.822;-0.326;2022-08-19T12:56:23;26.70;98.30
44565;DHT22;30275;51.822;-0.326;2022-08-19T12:58:48;26.70;99.50
44565;DHT22;30275;51.822;-0.326;2022-08-19T13:01:15;26.70;99.70
44565;DHT22;30275;51.822;-0.326;2022-08-19T13:03:42;26.70;99.90
44565;DHT22;30275;51.822;-0.326;2022-08-19T13:06:08;26.80;99.90
44565;DHT22;30275;51.822;-0.326;2022-08-19T13:08:35;26.70;99.70
44565;DHT22;30275;51.822;-0.326;2022-08-19T13:11:18;26.80;99.90
44565;DHT22;30275;51.822;-0.326;2022-08-19T13:13:46;26.90;99.90
44565;DHT22;30275;51.822;-0.326;2022-08-19T13:16:13;26.90;99.90
44565;DHT22;30275;51.822;-0.326;2022-08-19T13:18:43;26.90;99.90
44565;DHT22;30275;51.822;-0.326;2022-08-19T13:21:10;26.90;99.90
44565;DHT22;30275;51.822;-0.326;2022-08-19T13:23:38;27.10;99.90
44565;DHT22;30275;51.822;-0.326;2022-08-19T13:28:32;26.80;99.90
44565;DHT22;30275;51.822;-0.326;2022-08-19T13:31:19;27.00;99.90
44565;DHT22;30275;51.822;-0.326;2022-08-19T13:43:55;27.00;99.90
44565;DHT22;30275;51.822;-0.326;2022-08-19T13:46:20;27.10;99.90
44565;DHT22;30275;51.822;-0.326;2022-08-19T13:48:47;27.10;99.90
44565;DHT22;30275;51.822;-0.326;2022-08-19T13:51:17;27.10;99.90
44565;DHT22;30275;51.822;-0.326;2022-08-19T13:53:43;27.10;99.90
44565;DHT22;30275;51.822;-0.326;2022-08-19T13:56:14;27.10;99.90
44565;DHT22;30275;51.822;-0.326;2022-08-19T14:08:29;27.10;99.90
44565;DHT22;30275;51.822;-0.326;2022-08-19T14:10:57;27.10;99.90
44565;DHT22;30275;51.822;-0.326;2022-08-19T14:13:23;27.30;99.90
44565;DHT22;30275;51.822;-0.326;2022-08-19T14:15:49;27.30;99.90
44565;DHT22;30275;51.822;-0.326;2022-08-19T14:18:17;27.20;99.90
44565;DHT22;30275;51.822;-0.326;2022-08-19T14:23:10;27.30;99.90
44565;DHT22;30275;51.822;-0.326;2022-08-19T14:25:41;27.30;99.90
44565;DHT22;30275;51.822;-0.326;2022-08-19T14:28:07;27.40;99.90
44565;DHT22;30275;51.822;-0.326;2022-08-19T14:30:34;27.40;99.90
44565;DHT22;30275;51.822;-0.326;2022-08-19T14:33:03;27.40;99.90
44565;DHT22;30275;51.822;-0.326;2022-08-19T14:35:31;27.40;99.70
44565;DHT22;30275;51.822;-0.326;2022-08-19T14:38:02;27.40;99.80
44565;DHT22;30275;51.822;-0.326;2022-08-19T14:40:29;27.40;99.90
44565;DHT22;30275;51.822;-0.326;2022-08-19T14:43:00;27.40;99.90
44565;DHT22;30275;51.822;-0.326;2022-08-19T14:45:31;27.40;99.90
44565;DHT22;30275;51.822;-0.326;2022-08-19T15:15:09;27.40;99.90
44565;DHT22;30275;51.822;-0.326;2022-08-19T15:17:38;27.60;99.90
44565;DHT22;30275;51.822;-0.326;2022-08-19T15:39:46;27.60;93.00
44565;DHT22;30275;51.822;-0.326;2022-08-19T15:42:12;27.70;94.70
44565;DHT22;30275;51.822;-0.326;2022-08-19T15:44:38;27.60;95.60
44565;DHT22;30275;51.822;-0.326;2022-08-19T15:47:04;27.70;97.00
44565;DHT22;30275;51.822;-0.326;2022-08-19T15:49:29;27.70;97.40
44565;DHT22;30275;51.822;-0.326;2022-08-19T15:51:55;27.60;97.20
44565;DHT22;30275;51.822;-0.326;2022-08-19T15:54:23;27.70;97.30
44565;DHT22;30275;51.822;-0.326;2022-08-19T15:56:49;27.60;96.50
44565;DHT22;30275;51.822;-0.326;2022-08-19T15:59:35;27.70;96.30
44565;DHT22;30275;51.822;-0.326;2022-08-19T16:02:36;27.70;96.40
44565;DHT22;30275;51.822;-0.326;2022-08-19T16:05:24;27.60;96.40
44565;DHT22;30275;51.822;-0.326;2022-08-19T16:08:09;27.70;96.60
44565;DHT22;30275;51.822;-0.326;2022-08-19T16:10:36;27.70;96.60
44565;DHT22;30275;51.822;-0.326;2022-08-19T16:13:02;27.70;96.50
44565;DHT22;30275;51.822;-0.326;2022-08-19T16:15:31;27.70;95.40
44565;DHT22;30275;51.822;-0.326;2022-08-19T16:17:58;27.70;95.50
44565;DHT22;30275;51.822;-0.326;2022-08-19T16:20:27;27.60;95.50
44565;DHT22;30275;51.822;-0.326;2022-08-19T16:22:53;27.70;95.50
44565;DHT22;30275;51.822;-0.326;2022-08-19T16:25:19;27.60;95.60
44565;DHT22;30275;51.822;-0.326;2022-08-19T16:27:45;27.70;95.60
44565;DHT22;30275;51.822;-0.326;2022-08-19T16:30:11;27.70;95.60
44565;DHT22;30275;51.822;-0.326;2022-08-19T16:32:42;27.70;95.70
44565;DHT22;30275;51.822;-0.326;2022-08-19T16:35:08;27.70;95.70
44565;DHT22;30275;51.822;-0.326;2022-08-19T16:37:33;27.70;95.80
44565;DHT22;30275;51.822;-0.326;2022-08-19T16:39:59;27.70;96.60
44565;DHT22;30275;51.822;-0.326;2022-08-19T16:42:25;28.60;96.60
44565;DHT22;30275;51.822;-0.326;2022-08-19T16:44:50;27.70;97.10
44565;DHT22;30275;51.822;-0.326;2022-08-19T16:47:16;27.60;96.50
44565;DHT22;30275;51.822;-0.326;2022-08-19T16:49:42;27.60;96.70
44565;DHT22;30275;51.822;-0.326;2022-08-19T16:52:08;27.60;96.40
44565;DHT22;30275;51.822;-0.326;2022-08-19T16:54:35;27.60;96.40
44565;DHT22;30275;51.822;-0.326;2022-08-19T16:57:02;27.60;96.40
44565;DHT22;30275;51.822;-0.326;2022-08-19T16:59:28;27.60;96.70
44565;DHT22;30275;51.822;-0.326;2022-08-19T17:01:54;27.60;96.50
44565;DHT22;30275;51.822;-0.326;2022-08-19T17:04:19;27.60;96.70
44565;DHT22;30275;51.822;-0.326;2022-08-19T17:06:45;27.60;96.60
44565;DHT22;30275;51.822;-0.326;2022-08-19T17:09:11;27.60;96.10
44565;DHT22;30275;51.822;-0.326;2022-08-19T17:11:36;27.60;96.30
44565;DHT22;30275;51.822;-0.326;2022-08-19T17:14:04;27.60;96.30
44565;DHT22;30275;51.822;-0.326;2022-08-19T17:16:32;27.50;96.40
44565;DHT22;30275;51.822;-0.326;2022-08-19T17:19:00;27.60;96.10
44565;DHT22;30275;51.822;-0.326;2022-08-19T17:21:28;27.50;95.60
44565;DHT22;30275;51.822;-0.326;2022-08-19T17:23:57;27.50;95.60
44565;DHT22;30275;51.822;-0.326;2022-08-19T17:26:24;27.50;95.80
44565;DHT22;30275;51.822;-0.326;2022-08-19T17:28:52;27.50;95.90
44565;DHT22;30275;51.822;-0.326;2022-08-19T17:31:20;27.50;96.40
44565;DHT22;30275;51.822;-0.326;2022-08-19T17:33:48;27.50;96.10
44565;DHT22;30275;51.822;-0.326;2022-08-19T17:36:20;27.50;96.00
44565;DHT22;30275;51.822;-0.326;2022-08-19T17:38:51;27.50;95.90
44565;DHT22;30275;51.822;-0.326;2022-08-19T17:41:17;27.50;95.90
44565;DHT22;30275;51.822;-0.326;2022-08-19T17:43:43;27.40;95.90
44565;DHT22;30275;51.822;-0.326;2022-08-19T17:46:09;27.40;96.00
44565;DHT22;30275;51.822;-0.326;2022-08-19T17:48:37;27.40;95.90
44565;DHT22;30275;51.822;-0.326;2022-08-19T17:51:18;27.40;96.00
44565;DHT22;30275;51.822;-0.326;2022-08-19T17:53:45;27.40;95.90
44565;DHT22;30275;51.822;-0.326;2022-08-19T17:56:11;27.40;95.90
44565;DHT22;30275;51.822;-0.326;2022-08-19T17:58:38;27.40;95.90
44565;DHT22;30275;51.822;-0.326;2022-08-19T18:01:10;27.40;95.80
44565;DHT22;30275;51.822;-0.326;2022-08-19T18:03:37;27.40;95.80
44565;DHT22;30275;51.822;-0.326;2022-08-19T18:06:03;27.40;95.80
44565;DHT22;30275;51.822;-0.326;2022-08-19T18:08:29;27.40;95.90
44565;DHT22;30275;51.822;-0.326;2022-08-19T18:10:55;27.30;96.00
44565;DHT22;30275;51.822;-0.326;2022-08-19T18:13:21;27.30;96.20
44565;DHT22;30275;51.822;-0.326;2022-08-19T18:15:46;27.30;96.30
44565;DHT22;30275;51.822;-0.326;2022-08-19T18:18:12;27.30;96.20
44565;DHT22;30275;51.822;-0.326;2022-08-19T18:20:38;27.30;96.40
44565;DHT22;30275;51.822;-0.326;2022-08-19T18:23:04;27.30;96.30
44565;DHT22;30275;51.822;-0.326;2022-08-19T19:08:32;27.00;94.00
44565;DHT22;30275;51.822;-0.326;2022-08-19T19:10:58;27.00;95.70
44565;DHT22;30275;51.822;-0.326;2022-08-19T19:13:30;26.90;95.70
44565;DHT22;30275;51.822;-0.326;2022-08-19T19:15:57;27.00;95.70
44565;DHT22;30275;51.822;-0.326;2022-08-19T19:18:26;27.00;95.60
44565;DHT22;30275;51.822;-0.326;2022-08-19T19:20:52;27.00;95.80
44565;DHT22;30275;51.822;-0.326;2022-08-19T19:23:18;27.00;95.80
44565;DHT22;30275;51.822;-0.326;2022-08-19T19:25:44;27.00;95.80
44565;DHT22;30275;51.822;-0.326;2022-08-19T19:28:10;27.00;95.80
44565;DHT22;30275;51.822;-0.326;2022-08-19T19:30:36;27.00;95.90
44565;DHT22;30275;51.822;-0.326;2022-08-19T19:33:02;27.00;95.90
44565;DHT22;30275;51.822;-0.326;2022-08-19T19:35:28;27.00;96.00
44565;DHT22;30275;51.822;-0.326;2022-08-19T19:37:55;27.00;96.00
44565;DHT22;30275;51.822;-0.326;2022-08-19T19:40:21;27.00;96.00
44565;DHT22;30275;51.822;-0.326;2022-08-19T19:42:47;27.00;96.10
44565;DHT22;30275;51.822;-0.326;2022-08-19T19:45:15;27.00;96.10
44565;DHT22;30275;51.822;-0.326;2022-08-19T19:47:41;26.90;96.10
44565;DHT22;30275;51.822;-0.326;2022-08-19T19:50:15;26.90;96.20
44565;DHT22;30275;51.822;-0.326;2022-08-19T19:52:42;26.90;96.20
44565;DHT22;30275;51.822;-0.326;2022-08-19T19:55:10;26.90;96.30
44565;DHT22;30275;51.822;-0.326;2022-08-19T19:57:44;26.90;96.30
44565;DHT22;30275;51.822;-0.326;2022-08-19T20:00:10;26.90;96.40
44565;DHT22;30275;51.822;-0.326;2022-08-19T20:02:38;26.90;96.40
44565;DHT22;30275;51.822;-0.326;2022-08-19T20:05:04;26.90;96.50
44565;DHT22;30275;51.822;-0.326;2022-08-19T20:07:30;26.90;96.50
44565;DHT22;30275;51.822;-0.326;2022-08-19T20:10:14;26.90;96.60
44565;DHT22;30275;51.822;-0.326;2022-08-19T20:12:40;26.80;96.70
44565;DHT22;30275;51.822;-0.326;2022-08-19T20:15:06;26.80;96.80
44565;DHT22;30275;51.822;-0.326;2022-08-19T20:17:32;26.80;97.00
44565;DHT22;30275;51.822;-0.326;2022-08-19T20:19:57;26.80;97.10
44565;DHT22;30275;51.822;-0.326;2022-08-19T20:22:23;26.80;97.30
44565;DHT22;30275;51.822;-0.326;2022-08-19T20:24:50;26.80;97.60
44565;DHT22;30275;51.822;-0.326;2022-08-19T20:27:18;26.80;97.90
44565;DHT22;30275;51.822;-0.326;2022-08-19T20:29:44;26.70;99.20
44565;DHT22;30275;51.822;-0.326;2022-08-19T20:32:11;26.70;99.90
44565;DHT22;30275;51.822;-0.326;2022-08-19T20:34:38;26.70;99.80
44565;DHT22;30275;51.822;-0.326;2022-08-19T20:37:05;26.70;99.90
44565;DHT22;30275;51.822;-0.326;2022-08-19T20:39:33;26.60;99.90
44565;DHT22;30275;51.822;-0.326;2022-08-19T20:41:59;26.60;99.90
44565;DHT22;30275;51.822;-0.326;2022-08-19T20:44:25;26.60;99.20
44565;DHT22;30275;51.822;-0.326;2022-08-19T20:46:50;26.60;99.90
44565;DHT22;30275;51.822;-0.326;2022-08-19T20:49:16;26.60;99.90
44565;DHT22;30275;51.822;-0.326;2022-08-19T20:51:42;26.60;99.90
44565;DHT22;30275;51.822;-0.326;2022-08-19T20:54:11;26.50;99.90
44565;DHT22;30275;51.822;-0.326;2022-08-19T20:56:36;26.50;98.60
44565;DHT22;30275;51.822;-0.326;2022-08-19T20:59:02;26.50;98.60
44565;DHT22;30275;51.822;-0.326;2022-08-19T21:01:29;26.40;98.50
44565;DHT22;30275;51.822;-0.326;2022-08-19T21:03:54;26.40;98.60
44565;DHT22;30275;51.822;-0.326;2022-08-19T21:06:20;26.40;98.60
44565;DHT22;30275;51.822;-0.326;2022-08-19T21:08:45;26.40;98.60
44565;DHT22;30275;51.822;-0.326;2022-08-19T21:11:11;26.40;98.70
44565;DHT22;30275;51.822;-0.326;2022-08-19T21:13:38;26.40;98.80
44565;DHT22;30275;51.822;-0.326;2022-08-19T21:16:04;26.30;98.90